sensor_id;sensor_type;location;lat;lon;timestamp;pressure;altitude;pressure_sealevel;temperature;humidity
6567;BME280;3317;43.994;22.878;2023-02-22T00:00:14;100904.53;;;14.05;41.48
6567;BME280;3317;43.994;22.878;2023-02-22T00:02:48;100906.41;;;14.05;41.64
6567;BME280;3317;43.994;22.878;2023-02-22T00:05:16;100910.66;;;14.07;41.65
6567;BME280;3317;43.994;22.878;2023-02-22T00:07:46;100908.97;;;14.06;41.87
6567;BME280;3317;43.994;22.878;2023-02-22T00:10:14;100910.66;;;14.07;41.79
6567;BME280;3317;43.994;22.878;2023-02-22T00:12:46;100914.41;;;14.06;41.93
6567;BME280;3317;43.994;22.878;2023-02-22T00:15:15;100914.22;;;14.08;42.04
6567;BME280;3317;43.994;22.878;2023-02-22T00:17:42;100916.25;;;14.06;42.19
6567;BME280;3317;43.994;22.878;2023-02-22T00:20:11;100919.00;;;14.06;41.81
6567;BME280;3317;43.994;22.878;2023-02-22T00:22:39;100913.91;;;14.03;42.12
6567;BME280;3317;43.994;22.878;2023-02-22T00:25:08;100913.22;;;14.01;42.19
6567;BME280;3317;43.994;22.878;2023-02-22T00:27:35;100908.09;;;13.98;42.37
6567;BME280;3317;43.994;22.878;2023-02-22T00:30:03;100905.22;;;13.99;42.11
6567;BME280;3317;43.994;22.878;2023-02-22T00:32:31;100882.06;;;13.87;42.77
6567;BME280;3317;43.994;22.878;2023-02-22T00:34:58;100902.31;;;13.92;42.79
6567;BME280;3317;43.994;22.878;2023-02-22T00:37:25;100898.25;;;13.88;42.78
6567;BME280;3317;43.994;22.878;2023-02-22T00:39:56;100897.75;;;13.85;42.50
6567;BME280;3317;43.994;22.878;2023-02-22T00:42:24;100898.91;;;13.82;42.80
6567;BME280;3317;43.994;22.878;2023-02-22T00:44:51;100902.50;;;13.83;42.71
6567;BME280;3317;43.994;22.878;2023-02-22T00:47:18;100898.91;;;13.82;42.43
6567;BME280;3317;43.994;22.878;2023-02-22T00:49:45;100889.25;;;13.79;42.68
6567;BME280;3317;43.994;22.878;2023-02-22T00:52:12;100888.22;;;13.80;42.41
6567;BME280;3317;43.994;22.878;2023-02-22T00:54:38;100891.78;;;13.81;42.63
6567;BME280;3317;43.994;22.878;2023-02-22T00:57:05;100885.66;;;13.79;42.56
6567;BME280;3317;43.994;22.878;2023-02-22T00:59:34;100883.59;;;13.81;42.64
6567;BME280;3317;43.994;22.878;2023-02-22T01:02:01;100875.63;;;13.79;42.50
6567;BME280;3317;43.994;22.878;2023-02-22T01:04:28;100887.69;;;13.77;42.37
6567;BME280;3317;43.994;22.878;2023-02-22T01:06:55;100883.78;;;13.79;42.58
6567;BME280;3317;43.994;22.878;2023-02-22T01:09:23;100876.81;;;13.77;42.26
6567;BME280;3317;43.994;22.878;2023-02-22T01:11:52;100883.28;;;13.76;42.56
6567;BME280;3317;43.994;22.878;2023-02-22T01:14:21;100879.88;;;13.74;42.36
6567;BME280;3317;43.994;22.878;2023-02-22T01:16:49;100874.44;;;13.74;42.44
6567;BME280;3317;43.994;22.878;2023-02-22T01:19:16;100880.72;;;13.74;42.46
6567;BME280;3317;43.994;22.878;2023-02-22T01:21:43;100877.47;;;13.71;42.45
6567;BME280;3317;43.994;22.878;2023-02-22T01:24:11;100878.84;;;13.66;42.28
6567;BME280;3317;43.994;22.878;2023-02-22T01:26:40;100880.91;;;13.64;42.57
6567;BME280;3317;43.994;22.878;2023-02-22T01:29:07;100882.94;;;13.62;42.52
6567;BME280;3317;43.994;22.878;2023-02-22T01:31:39;100882.94;;;13.54;43.11
6567;BME280;3317;43.994;22.878;2023-02-22T01:34:08;100882.09;;;13.54;43.12
6567;BME280;3317;43.994;22.878;2023-02-22T01:36:35;100876.13;;;13.50;43.17
6567;BME280;3317;43.994;22.878;2023-02-22T01:39:02;100872.91;;;13.46;43.33
6567;BME280;3317;43.994;22.878;2023-02-22T01:41:30;100877.47;;;13.46;43.81
6567;BME280;3317;43.994;22.878;2023-02-22T01:43:57;100872.22;;;13.44;43.77
6567;BME280;3317;43.994;22.878;2023-02-22T01:46:24;100878.81;;;13.42;43.66
6567;BME280;3317;43.994;22.878;2023-02-22T01:48:54;100868.13;;;13.40;43.96
6567;BME280;3317;43.994;22.878;2023-02-22T01:51:26;100868.13;;;13.40;43.78
6567;BME280;3317;43.994;22.878;2023-02-22T01:53:57;100866.22;;;13.41;44.20
6567;BME280;3317;43.994;22.878;2023-02-22T01:56:25;100848.38;;;13.30;44.21
6567;BME280;3317;43.994;22.878;2023-02-22T01:58:56;100861.47;;;13.34;44.39
6567;BME280;3317;43.994;22.878;2023-02-22T02:01:25;100860.97;;;13.31;44.51
6567;BME280;3317;43.994;22.878;2023-02-22T02:03:55;100865.72;;;13.29;45.20
6567;BME280;3317;43.994;22.878;2023-02-22T02:06:26;100863.31;;;13.26;45.27
6567;BME280;3317;43.994;22.878;2023-02-22T02:08:59;100862.13;;;13.28;45.27
6567;BME280;3317;43.994;22.878;2023-02-22T02:11:28;100861.28;;;13.28;45.35
6567;BME280;3317;43.994;22.878;2023-02-22T02:13:56;100857.88;;;13.26;45.38
6567;BME280;3317;43.994;22.878;2023-02-22T02:16:26;100867.25;;;13.23;45.94
6567;BME280;3317;43.994;22.878;2023-02-22T02:18:58;100862.13;;;13.20;46.12
6567;BME280;3317;43.994;22.878;2023-02-22T02:24:54;100861.13;;;13.21;46.07
6567;BME280;3317;43.994;22.878;2023-02-22T02:27:26;100863.13;;;13.19;45.88
6567;BME280;3317;43.994;22.878;2023-02-22T02:33:04;100868.91;;;13.16;45.71
6567;BME280;3317;43.994;22.878;2023-02-22T02:35:46;100866.34;;;13.14;45.83
6567;BME280;3317;43.994;22.878;2023-02-22T02:38:21;100874.03;;;13.19;45.97
6567;BME280;3317;43.994;22.878;2023-02-22T02:40:59;100875.06;;;13.09;46.17
6567;BME280;3317;43.994;22.878;2023-02-22T02:43:33;100877.59;;;13.03;46.29
6567;BME280;3317;43.994;22.878;2023-02-22T02:46:06;100878.91;;;12.99;46.43
6567;BME280;3317;43.994;22.878;2023-02-22T02:48:39;100871.59;;;12.91;46.12
6567;BME280;3317;43.994;22.878;2023-02-22T02:51:09;100878.72;;;12.92;46.37
6567;BME280;3317;43.994;22.878;2023-02-22T02:53:41;100882.97;;;12.86;46.63
6567;BME280;3317;43.994;22.878;2023-02-22T02:56:10;100877.19;;;12.81;46.58
6567;BME280;3317;43.994;22.878;2023-02-22T02:58:47;100878.53;;;12.77;46.21
6567;BME280;3317;43.994;22.878;2023-02-22T03:01:20;100872.38;;;12.75;46.63
6567;BME280;3317;43.994;22.878;2023-02-22T03:07:02;100881.16;;;12.60;46.72
6567;BME280;3317;43.994;22.878;2023-02-22T03:09:42;100880.47;;;12.50;47.18
6567;BME280;3317;43.994;22.878;2023-02-22T03:12:20;100884.19;;;12.49;46.78
6567;BME280;3317;43.994;22.878;2023-02-22T03:14:59;100884.84;;;12.43;47.54
6567;BME280;3317;43.994;22.878;2023-02-22T03:17:39;100891.28;;;12.42;47.41
6567;BME280;3317;43.994;22.878;2023-02-22T03:20:13;100875.97;;;12.32;47.59
6567;BME280;3317;43.994;22.878;2023-02-22T03:22:52;100895.19;;;12.39;47.79
6567;BME280;3317;43.994;22.878;2023-02-22T03:25:24;100896.53;;;12.35;47.47
6567;BME280;3317;43.994;22.878;2023-02-22T03:27:57;100899.56;;;12.32;47.66
6567;BME280;3317;43.994;22.878;2023-02-22T03:30:32;100907.19;;;12.28;48.13
6567;BME280;3317;43.994;22.878;2023-02-22T03:33:04;100879.44;;;12.16;48.25
6567;BME280;3317;43.994;22.878;2023-02-22T03:35:39;100915.00;;;12.31;47.77
6567;BME280;3317;43.994;22.878;2023-02-22T03:38:10;100904.16;;;12.31;48.23
6567;BME280;3317;43.994;22.878;2023-02-22T03:40:43;100906.66;;;12.24;48.08
6567;BME280;3317;43.994;22.878;2023-02-22T03:43:14;100908.00;;;12.20;48.18
6567;BME280;3317;43.994;22.878;2023-02-22T03:45:43;100913.44;;;12.20;48.18
6567;BME280;3317;43.994;22.878;2023-02-22T03:48:16;100922.13;;;12.24;48.54
6567;BME280;3317;43.994;22.878;2023-02-22T03:50:47;100914.44;;;12.19;48.43
6567;BME280;3317;43.994;22.878;2023-02-22T03:53:15;100912.56;;;12.20;48.31
6567;BME280;3317;43.994;22.878;2023-02-22T03:55:43;100913.44;;;12.20;48.18
6567;BME280;3317;43.994;22.878;2023-02-22T03:58:11;100918.31;;;12.17;48.54
6567;BME280;3317;43.994;22.878;2023-02-22T04:00:39;100918.47;;;12.15;48.28
6567;BME280;3317;43.994;22.878;2023-02-22T04:03:09;100920.84;;;12.10;48.56
6567;BME280;3317;43.994;22.878;2023-02-22T04:05:36;100923.00;;;12.06;48.81
6567;BME280;3317;43.994;22.878;2023-02-22T04:08:04;100919.59;;;12.04;49.01
6567;BME280;3317;43.994;22.878;2023-02-22T04:10:31;100913.22;;;11.95;49.05
6567;BME280;3317;43.994;22.878;2023-02-22T04:12:59;100915.09;;;11.95;49.01
6567;BME280;3317;43.994;22.878;2023-02-22T04:15:26;100909.16;;;11.91;48.92
6567;BME280;3317;43.994;22.878;2023-02-22T04:17:53;100902.94;;;11.81;49.77
6567;BME280;3317;43.994;22.878;2023-02-22T04:20:20;100909.53;;;11.78;49.87
6567;BME280;3317;43.994;22.878;2023-02-22T04:22:50;100920.06;;;11.81;49.46
6567;BME280;3317;43.994;22.878;2023-02-22T04:25:19;100924.50;;;11.82;49.68
6567;BME280;3317;43.994;22.878;2023-02-22T04:27:46;100931.59;;;11.75;49.99
6567;BME280;3317;43.994;22.878;2023-02-22T04:30:16;100933.44;;;11.75;49.94
6567;BME280;3317;43.994;22.878;2023-02-22T04:32:43;100926.28;;;11.74;50.30
6567;BME280;3317;43.994;22.878;2023-02-22T04:35:10;100925.97;;;11.77;49.96
6567;BME280;3317;43.994;22.878;2023-02-22T04:37:37;100932.03;;;11.71;50.19
6567;BME280;3317;43.994;22.878;2023-02-22T04:40:05;100933.06;;;11.69;50.59
6567;BME280;3317;43.994;22.878;2023-02-22T04:42:34;100940.03;;;11.72;50.37
6567;BME280;3317;43.994;22.878;2023-02-22T04:45:02;100917.56;;;11.62;50.28
6567;BME280;3317;43.994;22.878;2023-02-22T04:47:29;100938.84;;;11.75;49.87
6567;BME280;3317;43.994;22.878;2023-02-22T04:49:56;100935.81;;;11.78;49.40
6567;BME280;3317;43.994;22.878;2023-02-22T04:52:25;100942.81;;;11.80;48.95
6567;BME280;3317;43.994;22.878;2023-02-22T04:54:52;100942.66;;;11.82;48.58
6567;BME280;3317;43.994;22.878;2023-02-22T04:57:19;100931.81;;;11.82;49.26
6567;BME280;3317;43.994;22.878;2023-02-22T04:59:47;100941.66;;;11.83;49.23
6567;BME280;3317;43.994;22.878;2023-02-22T05:02:15;100945.06;;;11.85;48.76
6567;BME280;3317;43.994;22.878;2023-02-22T05:04:42;100946.91;;;11.84;49.00
6567;BME280;3317;43.994;22.878;2023-02-22T05:07:09;100942.50;;;11.83;49.40
6567;BME280;3317;43.994;22.878;2023-02-22T05:09:36;100939.25;;;11.80;49.82
6567;BME280;3317;43.994;22.878;2023-02-22T05:12:03;100938.72;;;11.76;50.23
6567;BME280;3317;43.994;22.878;2023-02-22T05:14:31;100925.69;;;11.62;50.60
6567;BME280;3317;43.994;22.878;2023-02-22T05:17:00;100944.25;;;11.66;50.35
6567;BME280;3317;43.994;22.878;2023-02-22T05:19:27;100942.81;;;11.62;50.31
6567;BME280;3317;43.994;22.878;2023-02-22T05:21:54;100893.97;;;11.26;50.83
6567;BME280;3317;43.994;22.878;2023-02-22T05:24:22;100958.03;;;11.55;50.70
6567;BME280;3317;43.994;22.878;2023-02-22T05:26:49;100880.88;;;11.03;50.97
6567;BME280;3317;43.994;22.878;2023-02-22T05:29:17;100959.66;;;11.48;50.77
6567;BME280;3317;43.994;22.878;2023-02-22T05:31:44;100970.69;;;11.46;50.85
6567;BME280;3317;43.994;22.878;2023-02-22T05:34:13;100964.38;;;11.46;51.29
6567;BME280;3317;43.994;22.878;2023-02-22T05:36:39;100958.72;;;11.39;51.63
6567;BME280;3317;43.994;22.878;2023-02-22T05:39:06;100960.88;;;11.35;51.59
6567;BME280;3317;43.994;22.878;2023-02-22T05:41:33;100961.56;;;11.37;51.10
6567;BME280;3317;43.994;22.878;2023-02-22T05:44:00;100974.00;;;11.40;51.29
6567;BME280;3317;43.994;22.878;2023-02-22T05:46:28;100965.53;;;11.43;51.45
6567;BME280;3317;43.994;22.878;2023-02-22T05:48:55;100975.69;;;11.41;51.40
6567;BME280;3317;43.994;22.878;2023-02-22T05:51:23;100963.13;;;11.40;51.41
6567;BME280;3317;43.994;22.878;2023-02-22T05:53:50;100909.84;;;11.03;51.53
6567;BME280;3317;43.994;22.878;2023-02-22T05:56:22;100981.53;;;11.46;51.65
6567;BME280;3317;43.994;22.878;2023-02-22T05:58:49;100981.53;;;11.46;51.37
6567;BME280;3317;43.994;22.878;2023-02-22T06:01:16;100987.19;;;11.53;51.62
6567;BME280;3317;43.994;22.878;2023-02-22T06:03:45;100991.31;;;11.57;51.33
6567;BME280;3317;43.994;22.878;2023-02-22T06:06:13;100991.69;;;11.62;51.27
6567;BME280;3317;43.994;22.878;2023-02-22T06:08:41;100995.97;;;11.65;51.30
6567;BME280;3317;43.994;22.878;2023-02-22T06:11:08;100997.06;;;11.72;51.47
6567;BME280;3317;43.994;22.878;2023-02-22T06:13:35;100996.28;;;11.80;50.96
6567;BME280;3317;43.994;22.878;2023-02-22T06:16:03;101007.50;;;11.85;51.03
6567;BME280;3317;43.994;22.878;2023-02-22T06:18:30;101012.16;;;11.93;51.15
6567;BME280;3317;43.994;22.878;2023-02-22T06:20:57;101011.09;;;12.04;50.99
6567;BME280;3317;43.994;22.878;2023-02-22T06:23:24;101009.59;;;12.09;50.46
6567;BME280;3317;43.994;22.878;2023-02-22T06:25:53;101020.69;;;12.16;50.45
6567;BME280;3317;43.994;22.878;2023-02-22T06:28:20;101022.16;;;12.29;50.78
6567;BME280;3317;43.994;22.878;2023-02-22T06:30:48;101022.78;;;12.41;50.38
6567;BME280;3317;43.994;22.878;2023-02-22T06:33:15;101022.66;;;12.50;50.28
6567;BME280;3317;43.994;22.878;2023-02-22T06:35:42;101027.97;;;12.60;49.88
6567;BME280;3317;43.994;22.878;2023-02-22T06:38:09;101026.50;;;12.66;49.74
6567;BME280;3317;43.994;22.878;2023-02-22T06:40:36;101035.75;;;12.81;49.65
6567;BME280;3317;43.994;22.878;2023-02-22T06:43:05;101033.09;;;12.90;49.85
6567;BME280;3317;43.994;22.878;2023-02-22T06:45:31;101034.66;;;13.01;49.31
6567;BME280;3317;43.994;22.878;2023-02-22T06:47:58;101032.53;;;13.13;49.39
6567;BME280;3317;43.994;22.878;2023-02-22T06:50:27;101026.78;;;13.24;49.04
6567;BME280;3317;43.994;22.878;2023-02-22T06:52:55;101038.06;;;13.37;49.03
6567;BME280;3317;43.994;22.878;2023-02-22T06:55:26;101035.75;;;13.51;48.72
6567;BME280;3317;43.994;22.878;2023-02-22T06:57:54;101014.31;;;13.48;48.49
6567;BME280;3317;43.994;22.878;2023-02-22T07:00:24;101036.81;;;13.75;48.09
6567;BME280;3317;43.994;22.878;2023-02-22T07:02:51;101032.41;;;13.82;47.76
6567;BME280;3317;43.994;22.878;2023-02-22T07:05:20;101034.13;;;14.00;48.08
6567;BME280;3317;43.994;22.878;2023-02-22T07:07:49;101040.41;;;14.17;47.92
6567;BME280;3317;43.994;22.878;2023-02-22T07:10:19;101044.50;;;14.29;47.37
6567;BME280;3317;43.994;22.878;2023-02-22T07:12:46;101042.81;;;14.45;46.78
6567;BME280;3317;43.994;22.878;2023-02-22T07:15:14;101033.94;;;14.59;47.23
6567;BME280;3317;43.994;22.878;2023-02-22T07:17:44;101034.06;;;14.83;46.39
6567;BME280;3317;43.994;22.878;2023-02-22T07:20:11;101032.31;;;14.98;46.02
6567;BME280;3317;43.994;22.878;2023-02-22T07:22:38;101023.75;;;15.10;45.51
6567;BME280;3317;43.994;22.878;2023-02-22T07:25:06;101024.69;;;15.25;45.56
6567;BME280;3317;43.994;22.878;2023-02-22T07:27:35;101029.72;;;15.45;45.42
6567;BME280;3317;43.994;22.878;2023-02-22T07:30:03;101021.91;;;15.65;44.87
6567;BME280;3317;43.994;22.878;2023-02-22T07:32:31;101017.31;;;15.89;44.79
6567;BME280;3317;43.994;22.878;2023-02-22T07:34:59;101016.66;;;16.10;45.72
6567;BME280;3317;43.994;22.878;2023-02-22T07:37:27;101011.72;;;16.29;45.71
6567;BME280;3317;43.994;22.878;2023-02-22T07:39:54;101018.63;;;16.40;44.93
6567;BME280;3317;43.994;22.878;2023-02-22T07:42:21;101012.88;;;16.50;43.75
6567;BME280;3317;43.994;22.878;2023-02-22T07:44:48;101017.69;;;16.63;43.99
6567;BME280;3317;43.994;22.878;2023-02-22T07:47:15;101019.97;;;16.74;43.85
6567;BME280;3317;43.994;22.878;2023-02-22T07:49:42;101013.88;;;16.87;43.91
6567;BME280;3317;43.994;22.878;2023-02-22T07:52:10;101017.34;;;16.96;43.17
6567;BME280;3317;43.994;22.878;2023-02-22T07:54:37;101010.47;;;17.00;42.77
6567;BME280;3317;43.994;22.878;2023-02-22T07:57:04;101018.03;;;17.13;42.58
6567;BME280;3317;43.994;22.878;2023-02-22T07:59:31;100973.47;;;17.04;43.05
6567;BME280;3317;43.994;22.878;2023-02-22T08:01:58;101018.81;;;17.43;43.35
6567;BME280;3317;43.994;22.878;2023-02-22T08:04:25;101012.00;;;17.54;42.43
6567;BME280;3317;43.994;22.878;2023-02-22T08:06:52;101020.75;;;17.65;41.86
6567;BME280;3317;43.994;22.878;2023-02-22T08:09:20;101010.31;;;17.75;41.28
6567;BME280;3317;43.994;22.878;2023-02-22T08:11:48;101011.22;;;17.82;40.71
6567;BME280;3317;43.994;22.878;2023-02-22T08:14:15;101000.78;;;17.93;40.15
6567;BME280;3317;43.994;22.878;2023-02-22T08:16:42;101006.81;;;18.03;40.03
6567;BME280;3317;43.994;22.878;2023-02-22T08:19:09;101012.81;;;18.13;39.69
6567;BME280;3317;43.994;22.878;2023-02-22T08:21:36;101002.75;;;18.21;39.30
6567;BME280;3317;43.994;22.878;2023-02-22T08:24:03;101004.50;;;18.28;39.04
6567;BME280;3317;43.994;22.878;2023-02-22T08:26:32;101005.41;;;18.36;38.92
6567;BME280;3317;43.994;22.878;2023-02-22T08:28:58;101008.44;;;18.48;38.96
6567;BME280;3317;43.994;22.878;2023-02-22T08:31:25;101006.38;;;18.56;38.83
6567;BME280;3317;43.994;22.878;2023-02-22T08:33:52;101004.34;;;18.65;38.49
6567;BME280;3317;43.994;22.878;2023-02-22T08:36:19;101002.09;;;18.82;39.23
6567;BME280;3317;43.994;22.878;2023-02-22T08:38:46;100977.44;;;18.89;39.45
6567;BME280;3317;43.994;22.878;2023-02-22T08:41:14;100991.94;;;19.05;38.19
6567;BME280;3317;43.994;22.878;2023-02-22T08:43:42;101000.59;;;19.15;37.88
6567;BME280;3317;43.994;22.878;2023-02-22T08:46:09;100993.25;;;19.22;37.83
6567;BME280;3317;43.994;22.878;2023-02-22T08:48:36;100998.16;;;19.34;38.13
6567;BME280;3317;43.994;22.878;2023-02-22T08:51:03;100988.69;;;19.43;37.53
6567;BME280;3317;43.994;22.878;2023-02-22T08:53:30;100988.06;;;19.54;37.44
6567;BME280;3317;43.994;22.878;2023-02-22T08:55:57;100980.25;;;19.58;36.97
6567;BME280;3317;43.994;22.878;2023-02-22T08:58:24;100989.81;;;19.69;36.52
6567;BME280;3317;43.994;22.878;2023-02-22T09:00:52;100987.91;;;19.76;36.54
6567;BME280;3317;43.994;22.878;2023-02-22T09:03:19;100983.91;;;19.86;36.32
6567;BME280;3317;43.994;22.878;2023-02-22T09:05:46;100985.00;;;19.98;36.21
6567;BME280;3317;43.994;22.878;2023-02-22T09:08:15;100980.75;;;20.09;36.34
6567;BME280;3317;43.994;22.878;2023-02-22T09:10:42;100986.91;;;20.18;36.09
6567;BME280;3317;43.994;22.878;2023-02-22T09:13:09;100984.81;;;20.26;35.89
6567;BME280;3317;43.994;22.878;2023-02-22T09:15:37;100984.56;;;20.35;35.74
6567;BME280;3317;43.994;22.878;2023-02-22T09:18:08;100987.94;;;20.44;35.49
6567;BME280;3317;43.994;22.878;2023-02-22T09:20:35;100983.06;;;20.52;35.26
6567;BME280;3317;43.994;22.878;2023-02-22T09:23:03;100966.56;;;20.52;35.35
6567;BME280;3317;43.994;22.878;2023-02-22T09:25:30;100981.75;;;20.68;35.29
6567;BME280;3317;43.994;22.878;2023-02-22T09:27:58;100980.47;;;20.78;34.95
6567;BME280;3317;43.994;22.878;2023-02-22T09:30:27;100985.31;;;20.96;35.80
6567;BME280;3317;43.994;22.878;2023-02-22T09:32:58;100989.28;;;21.07;34.77
6567;BME280;3317;43.994;22.878;2023-02-22T09:35:27;100980.56;;;21.10;34.37
6567;BME280;3317;43.994;22.878;2023-02-22T09:37:54;100915.63;;;20.75;34.14
6567;BME280;3317;43.994;22.878;2023-02-22T09:40:22;100986.44;;;21.27;34.29
6567;BME280;3317;43.994;22.878;2023-02-22T09:43:20;100978.75;;;21.36;34.14
6567;BME280;3317;43.994;22.878;2023-02-22T09:46:07;100986.16;;;21.42;33.67
6567;BME280;3317;43.994;22.878;2023-02-22T09:48:47;100980.00;;;21.47;33.59
6567;BME280;3317;43.994;22.878;2023-02-22T09:51:19;100967.19;;;21.66;34.43
6567;BME280;3317;43.994;22.878;2023-02-22T09:53:55;100966.28;;;21.72;33.79
6567;BME280;3317;43.994;22.878;2023-02-22T09:56:26;100975.16;;;21.74;33.06
6567;BME280;3317;43.994;22.878;2023-02-22T09:58:55;100924.44;;;21.43;33.06
6567;BME280;3317;43.994;22.878;2023-02-22T10:01:27;100967.91;;;21.80;33.21
6567;BME280;3317;43.994;22.878;2023-02-22T10:04:03;100970.00;;;21.85;33.82
6567;BME280;3317;43.994;22.878;2023-02-22T10:06:33;100964.03;;;21.88;33.13
6567;BME280;3317;43.994;22.878;2023-02-22T10:09:02;100971.44;;;21.94;33.09
6567;BME280;3317;43.994;22.878;2023-02-22T10:11:46;100960.28;;;22.07;34.18
6567;BME280;3317;43.994;22.878;2023-02-22T10:14:34;100962.19;;;22.32;34.77
6567;BME280;3317;43.994;22.878;2023-02-22T10:17:11;100945.78;;;22.37;32.91
6567;BME280;3317;43.994;22.878;2023-02-22T10:19:49;100952.25;;;22.50;34.17
6567;BME280;3317;43.994;22.878;2023-02-22T10:22:35;100942.47;;;22.73;33.87
6567;BME280;3317;43.994;22.878;2023-02-22T10:25:09;100948.59;;;22.75;32.65
6567;BME280;3317;43.994;22.878;2023-02-22T10:27:39;100940.13;;;22.88;33.44
6567;BME280;3317;43.994;22.878;2023-02-22T10:30:16;100939.06;;;22.89;32.91
6567;BME280;3317;43.994;22.878;2023-02-22T10:32:46;100932.84;;;22.94;33.44
6567;BME280;3317;43.994;22.878;2023-02-22T10:35:20;100888.44;;;22.77;32.29
6567;BME280;3317;43.994;22.878;2023-02-22T10:37:50;100923.09;;;22.91;31.49
6567;BME280;3317;43.994;22.878;2023-02-22T10:40:20;100921.88;;;22.87;32.10
6567;BME280;3317;43.994;22.878;2023-02-22T10:42:57;100913.75;;;22.92;32.80
6567;BME280;3317;43.994;22.878;2023-02-22T10:45:26;100903.44;;;23.00;32.37
6567;BME280;3317;43.994;22.878;2023-02-22T10:47:57;100904.13;;;22.95;31.65
6567;BME280;3317;43.994;22.878;2023-02-22T10:50:27;100897.63;;;22.89;31.77
6567;BME280;3317;43.994;22.878;2023-02-22T10:52:56;100894.19;;;22.75;31.27
6567;BME280;3317;43.994;22.878;2023-02-22T10:55:23;100901.31;;;22.64;31.96
6567;BME280;3317;43.994;22.878;2023-02-22T10:57:58;100895.88;;;22.58;31.87
6567;BME280;3317;43.994;22.878;2023-02-22T11:00:29;100904.03;;;22.53;31.71
6567;BME280;3317;43.994;22.878;2023-02-22T11:02:58;100895.19;;;22.44;31.60
6567;BME280;3317;43.994;22.878;2023-02-22T11:05:31;100890.19;;;22.34;31.90
6567;BME280;3317;43.994;22.878;2023-02-22T11:08:22;100883.88;;;22.27;31.89
6567;BME280;3317;43.994;22.878;2023-02-22T11:10:51;100872.47;;;22.42;33.35
6567;BME280;3317;43.994;22.878;2023-02-22T11:13:24;100871.88;;;22.58;33.46
6567;BME280;3317;43.994;22.878;2023-02-22T11:15:52;100866.56;;;22.57;31.83
6567;BME280;3317;43.994;22.878;2023-02-22T11:18:25;100859.75;;;22.59;32.56
6567;BME280;3317;43.994;22.878;2023-02-22T11:21:00;100856.59;;;22.74;33.10
6567;BME280;3317;43.994;22.878;2023-02-22T11:23:31;100865.13;;;22.73;31.77
6567;BME280;3317;43.994;22.878;2023-02-22T11:26:09;100863.13;;;22.61;30.91
6567;BME280;3317;43.994;22.878;2023-02-22T11:28:42;100851.16;;;22.49;31.40
6567;BME280;3317;43.994;22.878;2023-02-22T11:31:15;100854.31;;;22.53;31.69
6567;BME280;3317;43.994;22.878;2023-02-22T11:33:49;100851.34;;;22.54;31.38
6567;BME280;3317;43.994;22.878;2023-02-22T11:36:30;100847.72;;;22.54;30.90
6567;BME280;3317;43.994;22.878;2023-02-22T11:38:59;100841.22;;;22.48;31.22
6567;BME280;3317;43.994;22.878;2023-02-22T11:41:31;100836.13;;;22.45;30.84
6567;BME280;3317;43.994;22.878;2023-02-22T11:44:13;100831.06;;;22.42;31.36
6567;BME280;3317;43.994;22.878;2023-02-22T11:46:46;100826.16;;;22.44;31.85
6567;BME280;3317;43.994;22.878;2023-02-22T11:49:15;100831.75;;;22.56;33.11
6567;BME280;3317;43.994;22.878;2023-02-22T11:51:58;100824.38;;;22.68;32.51
6567;BME280;3317;43.994;22.878;2023-02-22T11:57:49;100826.75;;;22.83;32.10
6567;BME280;3317;43.994;22.878;2023-02-22T12:00:24;100815.78;;;22.76;31.16
6567;BME280;3317;43.994;22.878;2023-02-22T12:03:19;100823.28;;;22.69;31.40
6567;BME280;3317;43.994;22.878;2023-02-22T12:06:14;100814.19;;;22.69;31.24
6567;BME280;3317;43.994;22.878;2023-02-22T12:08:55;100808.28;;;22.65;30.88
6567;BME280;3317;43.994;22.878;2023-02-22T12:11:33;100810.91;;;22.60;31.38
6567;BME280;3317;43.994;22.878;2023-02-22T12:14:12;100808.50;;;22.45;30.83
6567;BME280;3317;43.994;22.878;2023-02-22T12:19:32;100792.72;;;22.33;30.64
6567;BME280;3317;43.994;22.878;2023-02-22T12:22:04;100788.28;;;22.32;31.00
6567;BME280;3317;43.994;22.878;2023-02-22T12:24:35;100790.72;;;22.41;32.09
6567;BME280;3317;43.994;22.878;2023-02-22T12:27:07;100792.16;;;22.43;31.73
6567;BME280;3317;43.994;22.878;2023-02-22T12:29:38;100783.50;;;22.40;31.24
6567;BME280;3317;43.994;22.878;2023-02-22T12:32:10;100783.13;;;22.36;31.16
6567;BME280;3317;43.994;22.878;2023-02-22T12:34:44;100721.94;;;21.90;30.89
6567;BME280;3317;43.994;22.878;2023-02-22T12:37:15;100781.63;;;22.21;30.92
6567;BME280;3317;43.994;22.878;2023-02-22T12:39:53;100777.22;;;22.14;31.09
6567;BME280;3317;43.994;22.878;2023-02-22T12:42:27;100769.03;;;22.07;31.13
6567;BME280;3317;43.994;22.878;2023-02-22T12:44:59;100769.03;;;22.07;31.38
6567;BME280;3317;43.994;22.878;2023-02-22T12:47:32;100752.41;;;21.95;31.82
6567;BME280;3317;43.994;22.878;2023-02-22T12:50:06;100764.84;;;22.04;31.64
6567;BME280;3317;43.994;22.878;2023-02-22T12:52:43;100760.22;;;21.98;31.67
6567;BME280;3317;43.994;22.878;2023-02-22T12:55:16;100770.50;;;21.91;31.12
6567;BME280;3317;43.994;22.878;2023-02-22T12:57:48;100762.91;;;21.86;31.95
6567;BME280;3317;43.994;22.878;2023-02-22T13:00:20;100773.09;;;21.86;32.51
6567;BME280;3317;43.994;22.878;2023-02-22T13:02:56;100769.50;;;21.85;32.20
6567;BME280;3317;43.994;22.878;2023-02-22T13:05:24;100765.06;;;21.84;32.06
6567;BME280;3317;43.994;22.878;2023-02-22T13:08:04;100765.56;;;21.74;31.35
6567;BME280;3317;43.994;22.878;2023-02-22T13:10:47;100765.81;;;21.73;31.57
6567;BME280;3317;43.994;22.878;2023-02-22T13:13:25;100778.38;;;21.62;31.82
6567;BME280;3317;43.994;22.878;2023-02-22T13:15:59;100774.84;;;21.55;31.78
6567;BME280;3317;43.994;22.878;2023-02-22T13:18:32;100769.56;;;21.53;32.51
6567;BME280;3317;43.994;22.878;2023-02-22T13:21:05;100762.41;;;21.45;32.28
6567;BME280;3317;43.994;22.878;2023-02-22T13:23:40;100762.28;;;21.40;32.01
6567;BME280;3317;43.994;22.878;2023-02-22T13:26:13;100765.53;;;21.30;31.92
6567;BME280;3317;43.994;22.878;2023-02-22T13:28:46;100749.09;;;21.17;32.36
6567;BME280;3317;43.994;22.878;2023-02-22T13:31:42;100760.81;;;21.12;32.03